Time;durP1;ratioP1;P1;durP2;ratioP2;P2;SDS_P1;SDS_P2;PMS_P1;PMS_P2;Temp;Humidity;BMP_temperature;BMP_pressure;BME280_temperature;BME280_humidity;BME280_pressure;Samples;Min_cycle;Max_cycle;Signal;HPM_P1;HPM_P2
2023/10/19 00:00:50;;;;;;;2.40;1.00;;;;;11.90;94436.00;;;;5075893;28;20196;-56
2023/10/19 00:03:18;;;;;;;0.80;0.80;;;;;12.00;94439.00;;;;5075840;28;20328;-56
2023/10/19 00:05:46;;;;;;;0.70;0.70;;;;;11.90;94450.00;;;;5076652;28;20274;-56
2023/10/19 00:08:16;;;;;;;1.03;1.03;;;;;11.90;94445.00;;;;5075877;28;20192;-56
2023/10/19 00:10:45;;;;;;;1.10;1.10;;;;;12.00;94437.00;;;;5075724;28;20195;-56
2023/10/19 00:13:13;;;;;;;1.57;1.47;;;;;11.90;94445.00;;;;5075445;28;20214;-56
2023/10/19 00:15:42;;;;;;;0.70;0.70;;;;;11.90;94439.00;;;;5075725;28;20364;-56
2023/10/19 00:18:22;;;;;;;0.83;0.83;;;;;11.80;94432.00;;;;5075524;28;20685;-57
2023/10/19 00:20:54;;;;;;;1.47;1.43;;;;;11.90;94418.00;;;;5075855;28;20646;-57
2023/10/19 00:23:31;;;;;;;1.83;1.73;;;;;12.00;94421.00;;;;5075521;28;20245;-56
2023/10/19 00:25:59;;;;;;;1.47;1.37;;;;;11.90;94416.00;;;;5075640;28;20179;-57
2023/10/19 00:28:27;;;;;;;1.93;1.83;;;;;12.00;94416.00;;;;5075392;28;20278;-58
2023/10/19 00:31:02;;;;;;;0.80;0.80;;;;;11.90;94408.00;;;;5075721;28;20219;-56
2023/10/19 00:33:30;;;;;;;0.67;0.67;;;;;12.00;94403.00;;;;5075789;28;20704;-56
2023/10/19 00:36:06;;;;;;;1.03;1.00;;;;;12.00;94403.00;;;;5075289;28;20187;-57
2023/10/19 00:38:47;;;;;;;2.67;1.40;;;;;12.00;94403.00;;;;5075420;28;20176;-56
2023/10/19 00:41:20;;;;;;;1.10;1.10;;;;;11.90;94405.00;;;;5075187;28;20698;-57
2023/10/19 00:43:50;;;;;;;0.90;0.90;;;;;11.60;94405.00;;;;5075458;28;20263;-57
2023/10/19 00:46:21;;;;;;;0.80;0.80;;;;;11.80;94406.00;;;;5075072;28;20202;-57
2023/10/19 00:48:55;;;;;;;1.30;1.20;;;;;11.80;94400.00;;;;5075618;28;20584;-56
2023/10/19 00:51:40;;;;;;;2.90;1.60;;;;;11.60;94394.00;;;;5075183;28;20207;-58
2023/10/19 00:54:15;;;;;;;1.63;1.37;;;;;11.70;94389.00;;;;5075187;28;20671;-57
2023/10/19 00:56:48;;;;;;;1.13;1.13;;;;;11.70;94397.00;;;;5075215;28;20229;-57
2023/10/19 00:59:22;;;;;;;0.83;0.83;;;;;11.60;94393.00;;;;5075165;28;20183;-56
2023/10/19 01:01:54;;;;;;;1.27;1.23;;;;;11.70;94382.00;;;;5074791;28;20242;-57
2023/10/19 01:04:23;;;;;;;0.90;0.90;;;;;11.80;94380.00;;;;5075022;28;20282;-56
2023/10/19 01:07:01;;;;;;;1.13;0.90;;;;;11.90;94367.00;;;;5074777;28;20195;-56
2023/10/19 01:09:34;;;;;;;0.90;0.90;;;;;11.80;94371.00;;;;5075489;28;20190;-56
2023/10/19 01:12:17;;;;;;;0.80;0.80;;;;;11.80;94371.00;;;;5074704;28;20218;-57
2023/10/19 01:14:44;;;;;;;0.90;0.90;;;;;11.90;94379.00;;;;5074774;28;20659;-56
2023/10/19 01:17:12;;;;;;;0.90;0.90;;;;;11.90;94359.00;;;;5074512;28;20191;-55
2023/10/19 01:19:40;;;;;;;1.00;1.00;;;;;11.90;94362.00;;;;5074423;28;20195;-55
2023/10/19 01:22:08;;;;;;;1.33;1.33;;;;;11.90;94362.00;;;;5074424;28;20268;-56
2023/10/19 01:24:41;;;;;;;1.20;1.20;;;;;11.80;94365.00;;;;5072632;28;20286;-55
2023/10/19 01:27:10;;;;;;;0.83;0.83;;;;;11.80;94358.00;;;;5074921;28;20187;-56
2023/10/19 01:29:39;;;;;;;1.70;1.50;;;;;11.80;94358.00;;;;5074453;28;20674;-56
2023/10/19 01:32:09;;;;;;;0.60;0.60;;;;;11.90;94354.00;;;;5074648;28;20234;-57
2023/10/19 01:34:37;;;;;;;0.97;0.97;;;;;12.00;94352.00;;;;5074256;28;20219;-57
2023/10/19 01:37:03;;;;;;;1.20;1.20;;;;;11.80;94346.00;;;;5075163;28;20573;-57
2023/10/19 01:39:32;;;;;;;1.37;1.27;;;;;11.90;94346.00;;;;5074112;28;20194;-57
2023/10/19 01:41:59;;;;;;;1.07;1.07;;;;;11.80;94343.00;;;;5073920;28;20211;-56
2023/10/19 01:44:27;;;;;;;1.60;1.50;;;;;11.80;94331.00;;;;5073975;28;20223;-57
2023/10/19 01:46:55;;;;;;;1.00;0.93;;;;;11.80;94331.00;;;;5073990;28;20206;-57
2023/10/19 01:49:27;;;;;;;0.80;0.80;;;;;11.80;94340.00;;;;5073876;28;20191;-56
2023/10/19 01:51:54;;;;;;;0.83;0.83;;;;;11.90;94339.00;;;;5074320;28;20600;-56
2023/10/19 01:54:24;;;;;;;2.00;1.50;;;;;11.80;94333.00;;;;5074301;28;20864;-56
2023/10/19 01:56:54;;;;;;;1.00;1.00;;;;;11.90;94324.00;;;;5073654;28;20657;-56
2023/10/19 01:59:27;;;;;;;0.80;0.80;;;;;11.80;94324.00;;;;5074219;28;20689;-56
2023/10/19 02:01:54;;;;;;;0.90;0.90;;;;;11.70;94330.00;;;;5073707;28;20226;-55
2023/10/19 02:04:22;;;;;;;0.80;0.80;;;;;11.70;94325.00;;;;5072318;28;20191;-56
2023/10/19 02:06:52;;;;;;;1.10;1.10;;;;;11.70;94329.00;;;;5073888;28;20191;-55
2023/10/19 02:09:21;;;;;;;1.17;1.17;;;;;11.60;94321.00;;;;5072116;28;20601;-56
2023/10/19 02:11:52;;;;;;;1.70;1.60;;;;;11.60;94313.00;;;;5073434;28;20272;-56
2023/10/19 02:14:19;;;;;;;1.10;1.10;;;;;11.60;94277.00;;;;5073719;28;20693;-56
2023/10/19 02:16:51;;;;;;;0.73;0.73;;;;;11.60;94304.00;;;;5073416;28;20405;-56
2023/10/19 02:19:18;;;;;;;1.30;1.20;;;;;11.50;94300.00;;;;5073776;28;20603;-58
2023/10/19 02:21:48;;;;;;;2.27;1.30;;;;;11.50;94286.00;;;;5073261;28;20218;-56
2023/10/19 02:24:15;;;;;;;1.00;1.00;;;;;11.50;94296.00;;;;5073999;28;20223;-56
2023/10/19 02:26:44;;;;;;;0.70;0.70;;;;;11.40;94294.00;;;;5073509;28;20223;-56
2023/10/19 02:29:12;;;;;;;1.27;1.27;;;;;11.50;94290.00;;;;5073234;28;20198;-56
2023/10/19 02:31:40;;;;;;;4.43;1.80;;;;;11.40;94292.00;;;;5073134;28;20215;-56
2023/10/19 02:34:10;;;;;;;1.70;1.57;;;;;11.40;94289.00;;;;5073036;28;20659;-56
2023/10/19 02:36:40;;;;;;;1.90;1.63;;;;;11.40;94286.00;;;;5072223;28;20646;-56
2023/10/19 02:39:08;;;;;;;1.00;1.00;;;;;11.40;94276.00;;;;5073185;28;20686;-57
2023/10/19 02:41:36;;;;;;;1.00;1.00;;;;;11.50;94291.00;;;;5072984;28;20207;-57
2023/10/19 02:44:07;;;;;;;0.70;0.70;;;;;11.70;94282.00;;;;5073017;28;20281;-57
2023/10/19 02:46:34;;;;;;;0.63;0.63;;;;;11.50;94280.00;;;;5073085;28;20184;-57
2023/10/19 02:49:03;;;;;;;0.90;0.90;;;;;11.40;94271.00;;;;5073329;28;20192;-57
2023/10/19 02:51:31;;;;;;;1.07;1.07;;;;;11.50;94271.00;;;;5073400;28;20307;-57
2023/10/19 02:54:01;;;;;;;1.63;1.53;;;;;11.50;94267.00;;;;5072964;28;20195;-54
2023/10/19 02:56:29;;;;;;;1.07;1.07;;;;;11.50;94264.00;;;;5073424;28;20704;-56
2023/10/19 02:59:03;;;;;;;1.20;1.10;;;;;11.50;94261.00;;;;5072938;28;20199;-57
2023/10/19 03:01:33;;;;;;;0.90;0.90;;;;;11.40;94264.00;;;;5073005;28;20211;-56
2023/10/19 03:04:01;;;;;;;1.13;1.13;;;;;11.50;94260.00;;;;5073220;28;20184;-56
2023/10/19 03:06:32;;;;;;;0.63;0.63;;;;;11.60;94256.00;;;;5072969;28;20194;-56
2023/10/19 03:09:04;;;;;;;5.63;1.53;;;;;11.80;94252.00;;;;5073469;28;20230;-56
2023/10/19 03:11:32;;;;;;;1.37;1.37;;;;;12.00;94254.00;;;;5073003;28;20207;-56
2023/10/19 03:14:00;;;;;;;0.80;0.80;;;;;11.80;94248.00;;;;5073335;28;20545;-56
2023/10/19 03:16:30;;;;;;;5.07;1.17;;;;;11.60;94245.00;;;;5072750;28;20215;-55
2023/10/19 03:18:58;;;;;;;1.00;1.00;;;;;11.50;94243.00;;;;5072747;28;20180;-55
2023/10/19 03:21:26;;;;;;;1.23;1.20;;;;;11.40;94249.00;;;;5072543;28;20212;-56
2023/10/19 03:23:56;;;;;;;0.60;0.60;;;;;11.40;94244.00;;;;5072719;28;20188;-56
2023/10/19 03:26:27;;;;;;;1.00;1.00;;;;;11.30;94235.00;;;;5073121;28;20579;-56
2023/10/19 03:29:02;;;;;;;1.10;1.10;;;;;11.30;94238.00;;;;5072869;28;20193;-56
2023/10/19 03:31:32;;;;;;;0.80;0.80;;;;;11.30;94229.00;;;;5072529;28;20555;-56
2023/10/19 03:34:04;;;;;;;1.07;1.07;;;;;11.30;94238.00;;;;5071566;28;20210;-56
2023/10/19 03:36:33;;;;;;;0.80;0.80;;;;;11.30;94229.00;;;;5072604;28;20686;-56
2023/10/19 03:39:11;;;;;;;0.60;0.60;;;;;11.30;94226.00;;;;5072546;28;20188;-56
2023/10/19 03:41:42;;;;;;;1.07;1.07;;;;;11.30;94222.00;;;;5072406;28;20212;-56
2023/10/19 03:44:13;;;;;;;1.57;1.47;;;;;11.40;94221.00;;;;5072848;28;20701;-56
2023/10/19 03:46:52;;;;;;;0.93;0.93;;;;;11.30;94213.00;;;;5072471;28;20183;-56
2023/10/19 03:49:21;;;;;;;0.93;0.93;;;;;11.20;94206.00;;;;5076145;28;20283;-56
2023/10/19 03:52:00;;;;;;;1.33;1.17;;;;;11.20;94208.00;;;;5076047;28;20306;-56
2023/10/19 03:54:32;;;;;;;2.63;1.10;;;;;11.10;94215.00;;;;5076498;28;20190;-56
2023/10/19 03:57:04;;;;;;;1.00;1.00;;;;;11.10;94210.00;;;;5076103;28;20635;-56
2023/10/19 03:59:34;;;;;;;1.30;1.30;;;;;11.10;94200.00;;;;5076455;28;20187;-56
2023/10/19 04:02:07;;;;;;;1.07;1.07;;;;;11.10;94199.00;;;;5075630;28;20598;-56
2023/10/19 04:04:35;;;;;;;0.80;0.80;;;;;11.10;94201.00;;;;5076100;28;20184;-56
2023/10/19 04:07:10;;;;;;;0.60;0.60;;;;;11.10;94205.00;;;;5075886;28;20195;-56
2023/10/19 04:09:56;;;;;;;0.70;0.70;;;;;11.10;94199.00;;;;5075432;28;20195;-56
2023/10/19 04:12:24;;;;;;;1.00;1.00;;;;;11.10;94204.00;;;;5075747;28;20207;-56
2023/10/19 04:14:52;;;;;;;1.53;1.43;;;;;11.10;94197.00;;;;5075642;28;20215;-56
2023/10/19 04:17:21;;;;;;;0.97;0.97;;;;;11.00;94188.00;;;;5075699;28;20195;-56
2023/10/19 04:19:48;;;;;;;1.20;1.20;;;;;11.00;94182.00;;;;5075645;28;20639;-57
2023/10/19 04:22:22;;;;;;;1.00;1.00;;;;;11.00;94178.00;;;;5075783;28;20223;-56
2023/10/19 04:24:51;;;;;;;1.20;1.20;;;;;10.90;94177.00;;;;5075878;28;20265;-56
2023/10/19 04:27:21;;;;;;;2.63;1.27;;;;;11.00;94167.00;;;;5075640;28;20647;-56
2023/10/19 04:29:49;;;;;;;1.67;1.57;;;;;11.00;94170.00;;;;5075386;28;20592;-57
2023/10/19 04:32:25;;;;;;;0.80;0.80;;;;;11.10;94166.00;;;;5075426;28;20220;-56
2023/10/19 04:34:52;;;;;;;0.90;0.90;;;;;11.20;94167.00;;;;5075932;28;20186;-56
2023/10/19 04:37:22;;;;;;;1.03;1.03;;;;;11.30;94178.00;;;;5075180;28;20195;-57
2023/10/19 04:39:51;;;;;;;0.63;0.63;;;;;11.30;94168.00;;;;5075121;28;20226;-56
2023/10/19 04:42:22;;;;;;;0.90;0.90;;;;;11.30;94169.00;;;;5075013;28;20301;-56
2023/10/19 04:44:49;;;;;;;1.90;1.80;;;;;11.20;94172.00;;;;5075318;28;20262;-56
2023/10/19 04:47:17;;;;;;;0.90;0.90;;;;;11.40;94171.00;;;;5075056;28;20184;-56
2023/10/19 04:49:44;;;;;;;1.10;1.10;;;;;11.40;94159.00;;;;5074894;28;20199;-56
2023/10/19 04:52:12;;;;;;;1.27;1.27;;;;;11.40;94172.00;;;;5075554;28;20215;-56
2023/10/19 04:54:39;;;;;;;0.73;0.73;;;;;11.50;94165.00;;;;5074929;28;20191;-55
2023/10/19 04:57:08;;;;;;;1.13;1.13;;;;;11.50;94165.00;;;;5074818;28;20664;-56
2023/10/19 04:59:35;;;;;;;0.80;0.80;;;;;11.60;94164.00;;;;5072540;28;20257;-56
2023/10/19 05:02:03;;;;;;;1.03;1.03;;;;;11.50;94160.00;;;;5074701;28;20226;-56
2023/10/19 05:04:30;;;;;;;0.83;0.83;;;;;11.60;94160.00;;;;5075105;28;20202;-56
2023/10/19 05:06:57;;;;;;;1.40;1.13;;;;;11.60;94158.00;;;;5074592;28;20211;-56
2023/10/19 05:09:25;;;;;;;1.57;1.47;;;;;11.70;94158.00;;;;5074533;28;20196;-56
2023/10/19 05:11:52;;;;;;;0.70;0.70;;;;;11.70;94158.00;;;;5074475;28;20211;-57
2023/10/19 05:14:21;;;;;;;1.10;1.10;;;;;11.60;94165.00;;;;5074457;28;20195;-56
2023/10/19 05:16:49;;;;;;;0.90;0.90;;;;;11.60;94154.00;;;;5074692;28;20234;-55
2023/10/19 05:19:16;;;;;;;1.10;1.10;;;;;11.50;94161.00;;;;5074296;28;20231;-56
2023/10/19 05:21:44;;;;;;;0.90;0.90;;;;;11.40;94162.00;;;;5074314;28;20204;-57
2023/10/19 05:24:12;;;;;;;0.93;0.93;;;;;11.40;94160.00;;;;5074362;28;20198;-56
2023/10/19 05:26:39;;;;;;;0.90;0.90;;;;;11.30;94165.00;;;;5074263;28;20193;-56
2023/10/19 05:29:07;;;;;;;0.90;0.90;;;;;11.30;94170.00;;;;5074297;28;20558;-56
2023/10/19 05:31:35;;;;;;;1.63;1.53;;;;;11.30;94158.00;;;;5074059;28;20574;-56
2023/10/19 05:34:04;;;;;;;2.07;1.97;;;;;11.30;94156.00;;;;5074184;28;20224;-56
2023/10/19 05:36:32;;;;;;;1.10;1.10;;;;;11.30;94162.00;;;;5074332;28;20296;-56
2023/10/19 05:38:59;;;;;;;0.97;0.97;;;;;11.30;94163.00;;;;5074249;28;20187;-56
2023/10/19 05:41:27;;;;;;;1.27;1.27;;;;;11.30;94158.00;;;;5073913;28;20210;-56
2023/10/19 05:43:54;;;;;;;1.20;1.17;;;;;11.30;94149.00;;;;5072877;28;20206;-56
2023/10/19 05:46:24;;;;;;;1.80;1.67;;;;;11.40;94148.00;;;;5074015;28;20681;-56
2023/10/19 05:48:56;;;;;;;1.33;1.23;;;;;11.40;94154.00;;;;5074199;28;20206;-56
2023/10/19 05:51:23;;;;;;;3.50;1.43;;;;;11.40;94159.00;;;;5074090;28;20612;-56
2023/10/19 05:53:54;;;;;;;0.90;0.90;;;;;11.40;94155.00;;;;5074165;28;20270;-56
2023/10/19 05:56:21;;;;;;;1.13;1.13;;;;;11.40;94162.00;;;;5074403;28;20504;-55
2023/10/19 05:58:50;;;;;;;0.70;0.70;;;;;11.40;94164.00;;;;5073897;28;20198;-55
2023/10/19 06:01:18;;;;;;;0.87;0.87;;;;;11.50;94173.00;;;;5074019;28;20627;-55
2023/10/19 06:03:45;;;;;;;0.80;0.80;;;;;11.50;94177.00;;;;5073747;28;20195;-55
2023/10/19 06:06:14;;;;;;;1.30;1.27;;;;;11.50;94179.00;;;;5074029;28;20535;-55
2023/10/19 06:08:42;;;;;;;1.33;1.33;;;;;11.50;94166.00;;;;5074212;28;20187;-56
2023/10/19 06:11:09;;;;;;;1.53;1.47;;;;;11.50;94166.00;;;;5073562;28;20219;-56
2023/10/19 06:13:37;;;;;;;1.00;1.00;;;;;11.50;94160.00;;;;5073337;28;20195;-56
2023/10/19 06:16:05;;;;;;;1.23;1.23;;;;;11.60;94166.00;;;;5073261;28;20217;-60
2023/10/19 06:18:32;;;;;;;1.00;1.00;;;;;11.70;94165.00;;;;5073499;28;20195;-59
2023/10/19 06:21:00;;;;;;;0.77;0.77;;;;;11.60;94164.00;;;;5073262;28;20196;-59
2023/10/19 06:23:29;;;;;;;1.00;1.00;;;;;11.70;94156.00;;;;5071995;28;20537;-59
2023/10/19 06:25:56;;;;;;;0.93;0.93;;;;;11.70;94165.00;;;;5073023;28;20191;-55
2023/10/19 06:28:23;;;;;;;1.00;1.00;;;;;11.70;94162.00;;;;5069417;28;20203;-55
2023/10/19 06:30:51;;;;;;;1.07;1.07;;;;;11.80;94171.00;;;;5068194;28;20282;-55
2023/10/19 06:33:19;;;;;;;0.90;0.90;;;;;11.80;94170.00;;;;5071813;28;20198;-55
2023/10/19 06:35:46;;;;;;;1.43;1.30;;;;;11.90;94167.00;;;;5070301;28;20219;-55
2023/10/19 06:38:14;;;;;;;0.83;0.83;;;;;11.90;94170.00;;;;5071692;28;20191;-55
2023/10/19 06:40:43;;;;;;;1.03;1.03;;;;;11.80;94153.00;;;;5070893;28;20282;-55
2023/10/19 06:43:11;;;;;;;0.97;0.97;;;;;11.80;94152.00;;;;5071779;28;20686;-55
2023/10/19 06:45:38;;;;;;;0.80;0.80;;;;;11.80;94153.00;;;;5070930;28;20199;-55
2023/10/19 06:48:07;;;;;;;11.43;1.20;;;;;11.90;94156.00;;;;5071207;28;20294;-55
2023/10/19 06:50:36;;;;;;;1.43;0.90;;;;;11.90;94148.00;;;;5071441;28;20635;-55
2023/10/19 06:53:05;;;;;;;1.23;1.23;;;;;11.90;94145.00;;;;5070044;28;20211;-56
2023/10/19 06:55:32;;;;;;;1.10;1.10;;;;;12.00;94138.00;;;;5071493;28;20659;-56
2023/10/19 06:58:02;;;;;;;1.20;1.20;;;;;12.00;94143.00;;;;5071386;28;20195;-56
2023/10/19 07:00:29;;;;;;;1.73;1.63;;;;;12.10;94140.00;;;;5070544;28;20198;-55
2023/10/19 07:03:00;;;;;;;0.80;0.80;;;;;12.20;94150.00;;;;5071090;28;20242;-55
2023/10/19 07:05:29;;;;;;;2.30;2.20;;;;;12.20;94153.00;;;;5070587;28;20191;-56
2023/10/19 07:07:59;;;;;;;0.80;0.80;;;;;12.30;94152.00;;;;5071176;28;20195;-56
2023/10/19 07:10:28;;;;;;;0.83;0.83;;;;;12.30;94142.00;;;;5070741;28;20739;-56
2023/10/19 07:12:57;;;;;;;1.23;1.07;;;;;12.40;94139.00;;;;5070246;28;20265;-56
2023/10/19 07:15:28;;;;;;;0.90;0.90;;;;;12.50;94136.00;;;;5070841;28;20195;-56
2023/10/19 07:17:56;;;;;;;1.03;1.03;;;;;12.50;94142.00;;;;5070889;28;20625;-56
2023/10/19 07:20:26;;;;;;;0.87;0.87;;;;;12.60;94138.00;;;;5070856;28;20309;-56
2023/10/19 07:22:54;;;;;;;0.90;0.90;;;;;12.70;94144.00;;;;5072716;28;20300;-56
2023/10/19 07:25:22;;;;;;;0.90;0.90;;;;;12.80;94142.00;;;;5074722;28;20230;-56
2023/10/19 07:27:50;;;;;;;2.27;1.40;;;;;12.90;94140.00;;;;5074913;28;20282;-56
2023/10/19 07:30:21;;;;;;;2.73;1.03;;;;;12.90;94139.00;;;;5073794;28;20558;-56
2023/10/19 07:32:58;;;;;;;1.77;1.67;;;;;13.00;94137.00;;;;5073349;28;20242;-56
2023/10/19 07:35:27;;;;;;;1.03;1.03;;;;;13.10;94148.00;;;;5074132;28;20188;-56
2023/10/19 07:37:56;;;;;;;1.20;1.10;;;;;13.20;94144.00;;;;5072892;28;20219;-56
2023/10/19 07:40:24;;;;;;;1.53;1.10;;;;;13.30;94143.00;;;;5074432;28;20663;-56
2023/10/19 07:42:54;;;;;;;0.90;0.90;;;;;13.30;94132.00;;;;5073519;28;20231;-56
2023/10/19 07:45:21;;;;;;;1.00;1.00;;;;;13.40;94133.00;;;;5074178;28;20291;-56
2023/10/19 07:47:50;;;;;;;1.20;1.20;;;;;13.50;94127.00;;;;5074009;28;20278;-56
2023/10/19 07:50:18;;;;;;;2.97;1.23;;;;;13.70;94133.00;;;;5074308;28;20531;-56
2023/10/19 07:52:47;;;;;;;0.70;0.70;;;;;13.80;94131.00;;;;5073807;28;20222;-56
2023/10/19 07:55:15;;;;;;;1.27;1.27;;;;;13.90;94133.00;;;;5073745;28;20229;-56
2023/10/19 07:57:42;;;;;;;1.13;1.13;;;;;14.00;94131.00;;;;5073870;28;20281;-56
2023/10/19 08:00:13;;;;;;;1.13;1.13;;;;;14.10;94138.00;;;;5073997;28;20199;-56
2023/10/19 08:02:45;;;;;;;0.80;0.80;;;;;14.30;94142.00;;;;5073930;28;20230;-56
2023/10/19 08:05:14;;;;;;;0.67;0.67;;;;;14.40;94137.00;;;;5074147;28;20196;-56
2023/10/19 08:07:42;;;;;;;0.80;0.80;;;;;14.20;94141.00;;;;5073928;28;20188;-56
2023/10/19 08:10:11;;;;;;;1.13;1.03;;;;;14.30;94141.00;;;;5074193;28;20733;-55
2023/10/19 08:12:41;;;;;;;1.00;1.00;;;;;14.40;94139.00;;;;5073297;28;20631;-55
2023/10/19 08:15:11;;;;;;;1.00;1.00;;;;;14.50;94138.00;;;;5074114;28;20225;-55
2023/10/19 08:17:39;;;;;;;0.70;0.70;;;;;14.70;94135.00;;;;5072267;28;20227;-55
2023/10/19 08:20:11;;;;;;;0.93;0.93;;;;;14.80;94128.00;;;;5073744;28;20202;-55
2023/10/19 08:22:40;;;;;;;1.03;1.03;;;;;15.00;94134.00;;;;5073163;28;20211;-55
2023/10/19 08:25:12;;;;;;;1.40;1.30;;;;;15.00;94138.00;;;;5073941;28;20202;-56
2023/10/19 08:27:41;;;;;;;0.67;0.67;;;;;15.00;94136.00;;;;5073632;28;20206;-55
2023/10/19 08:30:10;;;;;;;1.03;1.03;;;;;15.00;94136.00;;;;5070730;28;20270;-55
2023/10/19 08:32:37;;;;;;;0.70;0.70;;;;;15.10;94131.00;;;;5073199;28;20277;-55
2023/10/19 08:35:05;;;;;;;0.60;0.60;;;;;15.30;94125.00;;;;5072443;28;20663;-55
2023/10/19 08:37:33;;;;;;;0.80;0.80;;;;;15.30;94127.00;;;;5073129;28;20215;-56
2023/10/19 08:40:04;;;;;;;1.07;1.07;;;;;15.40;94119.00;;;;5073401;28;20290;-55
2023/10/19 08:42:32;;;;;;;0.50;0.50;;;;;15.40;94127.00;;;;5073176;28;20221;-55
2023/10/19 08:45:00;;;;;;;0.50;0.50;;;;;15.50;94120.00;;;;5073181;28;20254;-56
2023/10/19 08:47:27;;;;;;;0.70;0.70;;;;;15.50;94126.00;;;;5072056;28;20219;-55
2023/10/19 08:49:55;;;;;;;0.60;0.60;;;;;15.50;94122.00;;;;5070338;28;20515;-55
2023/10/19 08:52:24;;;;;;;1.07;1.07;;;;;15.50;94120.00;;;;5073238;28;20211;-55
2023/10/19 08:54:51;;;;;;;1.10;1.10;;;;;15.60;94121.00;;;;5072876;28;20195;-55
2023/10/19 08:57:20;;;;;;;0.80;0.80;;;;;15.50;94122.00;;;;5072997;28;20219;-55
2023/10/19 08:59:48;;;;;;;1.50;1.40;;;;;15.50;94117.00;;;;5072934;28;20576;-55
2023/10/19 09:02:17;;;;;;;1.23;1.23;;;;;15.60;94107.00;;;;5072878;28;20242;-56
2023/10/19 09:04:48;;;;;;;0.80;0.80;;;;;15.60;94099.00;;;;5072476;28;20278;-55
2023/10/19 09:07:18;;;;;;;0.60;0.60;;;;;15.60;94098.00;;;;5073127;28;20187;-55
2023/10/19 09:09:47;;;;;;;1.10;1.10;;;;;15.70;94094.00;;;;5072829;28;20207;-55
2023/10/19 09:12:15;;;;;;;1.43;1.33;;;;;15.80;94105.00;;;;5072782;28;20223;-55
2023/10/19 09:14:45;;;;;;;0.70;0.70;;;;;15.80;94106.00;;;;5072107;28;20195;-55
2023/10/19 09:17:13;;;;;;;0.60;0.60;;;;;15.60;94104.00;;;;5073103;28;20199;-55
2023/10/19 09:19:42;;;;;;;0.60;0.60;;;;;15.50;94109.00;;;;5072675;28;20191;-55
2023/10/19 09:22:18;;;;;;;0.80;0.80;;;;;15.40;94093.00;;;;5072197;28;20245;-56
2023/10/19 09:24:46;;;;;;;1.10;1.10;;;;;15.60;94097.00;;;;5067922;28;20183;-55
2023/10/19 09:27:14;;;;;;;0.80;0.80;;;;;15.60;94092.00;;;;5070962;28;20198;-55
2023/10/19 09:29:42;;;;;;;0.80;0.80;;;;;15.50;94098.00;;;;5071513;28;20210;-55
2023/10/19 09:32:13;;;;;;;0.80;0.80;;;;;15.60;94095.00;;;;5070964;28;20220;-54
2023/10/19 09:34:43;;;;;;;1.07;1.07;;;;;15.60;94098.00;;;;5072205;28;20191;-56
2023/10/19 09:37:11;;;;;;;1.10;1.10;;;;;15.60;94094.00;;;;5072308;28;20226;-54
2023/10/19 09:39:39;;;;;;;0.70;0.70;;;;;15.70;94091.00;;;;5071075;28;20573;-55
2023/10/19 09:42:11;;;;;;;0.87;0.87;;;;;15.70;94094.00;;;;5072009;28;20215;-55
2023/10/19 09:44:45;;;;;;;0.80;0.80;;;;;15.70;94086.00;;;;5070449;28;20609;-56
2023/10/19 09:47:16;;;;;;;1.27;1.23;;;;;15.70;94094.00;;;;5070529;28;20225;-55
2023/10/19 09:49:45;;;;;;;3.20;0.90;;;;;15.60;94100.00;;;;5072011;28;20548;-55
2023/10/19 09:52:13;;;;;;;0.70;0.70;;;;;15.50;94103.00;;;;5069912;28;20216;-55
2023/10/19 09:54:53;;;;;;;0.90;0.90;;;;;15.50;94106.00;;;;5069876;28;20196;-55
2023/10/19 09:57:28;;;;;;;0.77;0.77;;;;;15.50;94102.00;;;;5067550;28;20207;-55
2023/10/19 10:00:08;;;;;;;0.50;0.50;;;;;15.40;94093.00;;;;5071720;28;20656;-55
2023/10/19 10:02:36;;;;;;;0.60;0.60;;;;;15.40;94088.00;;;;5071533;28;20312;-55
2023/10/19 10:05:05;;;;;;;1.13;1.13;;;;;15.40;94093.00;;;;5071873;28;20196;-55
2023/10/19 10:07:33;;;;;;;1.37;1.37;;;;;15.40;94096.00;;;;5070571;28;20624;-55
2023/10/19 10:10:01;;;;;;;1.00;1.00;;;;;15.40;94087.00;;;;5071499;28;20283;-55
2023/10/19 10:12:29;;;;;;;1.10;1.10;;;;;15.60;94092.00;;;;5071440;28;20227;-55
2023/10/19 10:15:01;;;;;;;0.87;0.87;;;;;15.60;94096.00;;;;5071804;28;20197;-55
2023/10/19 10:17:28;;;;;;;1.00;1.00;;;;;15.60;94097.00;;;;5071623;28;20207;-55
2023/10/19 10:19:59;;;;;;;0.60;0.60;;;;;15.70;94095.00;;;;5071788;28;20273;-55
2023/10/19 10:22:27;;;;;;;1.30;1.20;;;;;15.80;94095.00;;;;5071303;28;20318;-55
2023/10/19 10:24:57;;;;;;;1.80;1.70;;;;;15.90;94094.00;;;;5071736;28;20195;-55
2023/10/19 10:27:25;;;;;;;1.13;1.03;;;;;15.80;94104.00;;;;5071660;28;20290;-55
2023/10/19 10:29:58;;;;;;;0.70;0.70;;;;;15.80;94112.00;;;;5071353;28;20227;-55
2023/10/19 10:32:45;;;;;;;0.60;0.60;;;;;15.70;94114.00;;;;5071179;28;20211;-55
2023/10/19 10:35:51;;;;;;;1.07;1.07;;;;;15.70;94125.00;;;;5073023;28;20222;-55
2023/10/19 10:38:18;;;;;;;0.93;0.93;;;;;15.40;94125.00;;;;5072865;28;20222;-55
2023/10/19 10:40:47;;;;;;;1.47;1.37;;;;;15.50;94124.00;;;;5072773;28;20231;-55
2023/10/19 10:43:15;;;;;;;0.60;0.60;;;;;15.50;94128.00;;;;5072924;28;20582;-55
2023/10/19 10:45:44;;;;;;;0.70;0.70;;;;;15.40;94119.00;;;;5071308;28;20200;-55
2023/10/19 10:48:16;;;;;;;0.80;0.80;;;;;15.30;94123.00;;;;5071099;28;20229;-55
2023/10/19 10:50:45;;;;;;;0.80;0.80;;;;;15.40;94111.00;;;;5071751;28;20594;-55
2023/10/19 10:53:14;;;;;;;1.07;1.07;;;;;15.20;94112.00;;;;5070164;28;20564;-55
2023/10/19 10:55:42;;;;;;;0.80;0.80;;;;;15.00;94126.00;;;;5071472;28;20335;-55
2023/10/19 10:58:10;;;;;;;0.90;0.90;;;;;15.10;94124.00;;;;5072931;28;20238;-55
2023/10/19 11:00:46;;;;;;;0.70;0.70;;;;;15.10;94105.00;;;;5075549;28;20300;-55
2023/10/19 11:03:15;;;;;;;1.00;1.00;;;;;14.90;94107.00;;;;5073480;28;20230;-55
2023/10/19 11:05:45;;;;;;;0.70;0.70;;;;;14.80;94103.00;;;;5074288;28;20252;-55
2023/10/19 11:08:14;;;;;;;0.90;0.90;;;;;14.80;94094.00;;;;5074974;28;20191;-55
2023/10/19 11:10:44;;;;;;;8.50;1.40;;;;;14.80;94090.00;;;;5075351;28;20238;-56
2023/10/19 11:13:13;;;;;;;1.13;1.13;;;;;14.70;94090.00;;;;5074686;28;20241;-56
2023/10/19 11:15:49;;;;;;;1.40;1.40;;;;;14.70;94085.00;;;;5075477;28;20207;-56
2023/10/19 11:18:30;;;;;;;6.90;1.37;;;;;14.80;94088.00;;;;5075072;28;20226;-56
2023/10/19 11:20:59;;;;;;;1.00;1.00;;;;;15.10;94099.00;;;;5071418;28;20188;-56
2023/10/19 11:23:37;;;;;;;1.57;1.47;;;;;15.00;94079.00;;;;5074792;28;20195;-56
2023/10/19 11:26:05;;;;;;;1.00;1.00;;;;;14.80;94076.00;;;;5074114;28;20651;-56
2023/10/19 11:28:33;;;;;;;1.20;1.20;;;;;14.60;94065.00;;;;5074673;28;20214;-56
2023/10/19 11:31:16;;;;;;;1.10;1.10;;;;;14.60;94054.00;;;;5074717;28;20257;-57
2023/10/19 11:33:44;;;;;;;0.90;0.90;;;;;14.60;94038.00;;;;5075183;28;20214;-55
2023/10/19 11:36:13;;;;;;;0.90;0.90;;;;;14.60;94035.00;;;;5074549;28;20611;-54
2023/10/19 11:38:45;;;;;;;0.60;0.60;;;;;14.70;94035.00;;;;5074251;28;20230;-54
2023/10/19 11:41:13;;;;;;;0.80;0.80;;;;;14.70;94023.00;;;;5074683;28;20301;-54
2023/10/19 11:43:42;;;;;;;0.63;0.63;;;;;14.80;94022.00;;;;5074717;28;20245;-55
2023/10/19 11:46:11;;;;;;;1.60;1.50;;;;;14.80;94020.00;;;;5074447;28;20261;-54
2023/10/19 11:48:42;;;;;;;0.83;0.83;;;;;14.80;94013.00;;;;5074592;28;20561;-56
2023/10/19 11:51:11;;;;;;;0.63;0.63;;;;;14.80;94009.00;;;;5074403;28;20613;-54
2023/10/19 11:53:40;;;;;;;0.97;0.97;;;;;14.80;93995.00;;;;5073065;28;20290;-56
2023/10/19 11:56:09;;;;;;;0.80;0.80;;;;;14.70;93986.00;;;;5074156;28;20210;-54
2023/10/19 11:58:39;;;;;;;0.80;0.80;;;;;14.80;93982.00;;;;5073909;28;20329;-54
2023/10/19 12:01:08;;;;;;;1.17;1.17;;;;;14.90;93975.00;;;;5073065;28;20225;-54
2023/10/19 12:03:36;;;;;;;0.90;0.90;;;;;14.90;93965.00;;;;5074215;28;20199;-54
2023/10/19 12:06:06;;;;;;;0.90;0.90;;;;;15.00;93995.00;;;;5074435;28;20200;-56
2023/10/19 12:08:33;;;;;;;0.57;0.57;;;;;15.20;94004.00;;;;5074232;28;20187;-54
2023/10/19 12:11:03;;;;;;;1.17;1.17;;;;;15.30;94013.00;;;;5073784;28;20619;-54
2023/10/19 12:13:32;;;;;;;0.70;0.70;;;;;15.30;94009.00;;;;5073737;28;20269;-55
2023/10/19 12:15:59;;;;;;;1.70;1.37;;;;;15.30;94006.00;;;;5073715;28;20203;-55
2023/10/19 12:18:28;;;;;;;1.23;1.00;;;;;15.40;94017.00;;;;5073466;28;20397;-55
2023/10/19 12:20:59;;;;;;;0.70;0.70;;;;;15.50;94007.00;;;;5074083;28;20287;-55
2023/10/19 12:23:29;;;;;;;0.77;0.77;;;;;15.30;94012.00;;;;5071955;28;20271;-55
2023/10/19 12:25:56;;;;;;;0.80;0.80;;;;;15.40;94018.00;;;;5074226;28;20659;-55
2023/10/19 12:28:24;;;;;;;0.73;0.73;;;;;15.20;94021.00;;;;5073429;28;20643;-56
2023/10/19 12:30:52;;;;;;;1.10;1.10;;;;;15.10;94020.00;;;;5072478;28;20245;-55